Terminal Aerodrome Forecast
Issued by NWS Cleveland, OH

Home | Current Version | Previous Version | Text Only | Print | Product List | Glossary Off
Versions: 1 2 3 4 5 6 7 8 9 10 11 12 13 14 15 16 17 18 19 20 21 22 23 24

000
FTUS41 KCLE 231400 AAB
TAFMFD
TAF AMD
KMFD 231401Z 2314/2412 32004KT P6SM OVC005
      TEMPO 2314/2315 SCT005 BKN015
     FM231500 31005KT P6SM SCT015
     FM231700 31005KT P6SM SCT250
     FM232300 29003KT P6SM BKN250=

USA.gov is the U.S. government's official web portal to all federal, state and local government web resources and services.